Terminal Aerodrome Forecast
Issued by NWS Binghamton, NY

Home | Current Version | Previous Version | Text Only | Print | Product List | Glossary On
Versions: 1 2 3 4 5 6 7 8 9 10 11 12 13 14 15 16
000
FTUS41 KBGM 302320
TAFSYR
TAF
KSYR 302320Z 0100/0124 09006KT P6SM -SHRA OVC040
      TEMPO 0102/0103 4SM -SHRA OVC025
     FM010300 09006KT P6SM OVC030 PROB30 0116/0119 4SM -SHRA OVC012
     FM011900 09008KT P6SM -SHRA OVC025
     FM012300 10009KT P6SM OVC020 PROB30 0123/0124 4SM -SHRA OVC012=

USA.gov is the U.S. government's official web portal to all federal, state and local government web resources and services.